sensor_id;sensor_type;location;lat;lon;timestamp;P1;P2;P0
55549;PMS7003;41397;49.972;18.944;2023-10-19T00:02:32;71;63;40
55549;PMS7003;41397;49.972;18.944;2023-10-19T00:05:35;82;76;48
55549;PMS7003;41397;49.972;18.944;2023-10-19T00:08:36;69;66;44
55549;PMS7003;41397;49.972;18.944;2023-10-19T00:11:44;72;67;39
55549;PMS7003;41397;49.972;18.944;2023-10-19T00:14:48;86;69;42
55549;PMS7003;41397;49.972;18.944;2023-10-19T00:17:50;87;70;46
55549;PMS7003;41397;49.972;18.944;2023-10-19T00:20:55;86;79;46
55549;PMS7003;41397;49.972;18.944;2023-10-19T00:24:10;79;77;46
55549;PMS7003;41397;49.972;18.944;2023-10-19T00:27:11;86;76;45
55549;PMS7003;41397;49.972;18.944;2023-10-19T00:30:20;97;80;47
55549;PMS7003;41397;49.972;18.944;2023-10-19T00:33:29;90;75;44
55549;PMS7003;41397;49.972;18.944;2023-10-19T00:36:33;73;69;44
55549;PMS7003;41397;49.972;18.944;2023-10-19T00:39:34;88;78;45
55549;PMS7003;41397;49.972;18.944;2023-10-19T00:42:50;84;79;49
55549;PMS7003;41397;49.972;18.944;2023-10-19T00:45:56;74;68;41
55549;PMS7003;41397;49.972;18.944;2023-10-19T00:48:59;89;78;45
55549;PMS7003;41397;49.972;18.944;2023-10-19T00:52:06;94;83;52
55549;PMS7003;41397;49.972;18.944;2023-10-19T00:55:20;93;89;51
55549;PMS7003;41397;49.972;18.944;2023-10-19T00:58:26;88;76;44
55549;PMS7003;41397;49.972;18.944;2023-10-19T01:01:31;89;87;55
55549;PMS7003;41397;49.972;18.944;2023-10-19T01:04:42;77;71;39
55549;PMS7003;41397;49.972;18.944;2023-10-19T01:07:46;88;85;46
55549;PMS7003;41397;49.972;18.944;2023-10-19T01:10:59;83;72;42
55549;PMS7003;41397;49.972;18.944;2023-10-19T01:14:17;88;84;49
55549;PMS7003;41397;49.972;18.944;2023-10-19T01:17:16;84;75;42
55549;PMS7003;41397;49.972;18.944;2023-10-19T01:20:20;80;73;43
55549;PMS7003;41397;49.972;18.944;2023-10-19T01:23:36;77;72;43
55549;PMS7003;41397;49.972;18.944;2023-10-19T01:26:39;88;77;42
55549;PMS7003;41397;49.972;18.944;2023-10-19T01:29:41;75;70;40
55549;PMS7003;41397;49.972;18.944;2023-10-19T01:32:42;74;68;40
55549;PMS7003;41397;49.972;18.944;2023-10-19T01:35:44;73;70;42
55549;PMS7003;41397;49.972;18.944;2023-10-19T01:38:59;80;79;44
55549;PMS7003;41397;49.972;18.944;2023-10-19T01:42:17;59;49;22
55549;PMS7003;41397;49.972;18.944;2023-10-19T01:45:19;74;70;42
55549;PMS7003;41397;49.972;18.944;2023-10-19T01:48:20;71;64;42
55549;PMS7003;41397;49.972;18.944;2023-10-19T01:51:33;86;78;41
55549;PMS7003;41397;49.972;18.944;2023-10-19T01:54:39;77;72;44
55549;PMS7003;41397;49.972;18.944;2023-10-19T01:57:44;81;63;36
55549;PMS7003;41397;49.972;18.944;2023-10-19T02:00:45;75;68;41
55549;PMS7003;41397;49.972;18.944;2023-10-19T02:03:47;68;58;34
55549;PMS7003;41397;49.972;18.944;2023-10-19T02:06:56;81;73;45
55549;PMS7003;41397;49.972;18.944;2023-10-19T02:10:03;76;64;36
55549;PMS7003;41397;49.972;18.944;2023-10-19T02:13:11;65;60;38
55549;PMS7003;41397;49.972;18.944;2023-10-19T02:16:16;60;54;35
55549;PMS7003;41397;49.972;18.944;2023-10-19T02:19:26;69;61;34
55549;PMS7003;41397;49.972;18.944;2023-10-19T02:22:28;63;54;36
55549;PMS7003;41397;49.972;18.944;2023-10-19T02:25:30;72;70;38
55549;PMS7003;41397;49.972;18.944;2023-10-19T02:28:40;61;51;27
55549;PMS7003;41397;49.972;18.944;2023-10-19T02:31:44;65;58;34
55549;PMS7003;41397;49.972;18.944;2023-10-19T02:34:49;64;55;30
55549;PMS7003;41397;49.972;18.944;2023-10-19T02:37:50;54;44;19
55549;PMS7003;41397;49.972;18.944;2023-10-19T02:40:51;63;51;33
55549;PMS7003;41397;49.972;18.944;2023-10-19T02:43:53;67;54;36
55549;PMS7003;41397;49.972;18.944;2023-10-19T02:47:06;66;55;31
55549;PMS7003;41397;49.972;18.944;2023-10-19T02:50:09;65;59;36
55549;PMS7003;41397;49.972;18.944;2023-10-19T02:53:22;58;49;29
55549;PMS7003;41397;49.972;18.944;2023-10-19T02:56:25;73;59;35
55549;PMS7003;41397;49.972;18.944;2023-10-19T02:59:30;64;54;36
55549;PMS7003;41397;49.972;18.944;2023-10-19T03:02:33;62;55;32
55549;PMS7003;41397;49.972;18.944;2023-10-19T03:05:37;61;54;35
55549;PMS7003;41397;49.972;18.944;2023-10-19T03:08:42;68;58;35
55549;PMS7003;41397;49.972;18.944;2023-10-19T03:11:48;63;56;34
55549;PMS7003;41397;49.972;18.944;2023-10-19T03:14:55;65;55;32
55549;PMS7003;41397;49.972;18.944;2023-10-19T03:17:56;60;51;32
55549;PMS7003;41397;49.972;18.944;2023-10-19T03:20:58;57;49;30
55549;PMS7003;41397;49.972;18.944;2023-10-19T03:23:59;59;50;30
55549;PMS7003;41397;49.972;18.944;2023-10-19T03:27:15;60;50;32
55549;PMS7003;41397;49.972;18.944;2023-10-19T03:30:24;65;48;31
55549;PMS7003;41397;49.972;18.944;2023-10-19T03:33:26;62;49;29
55549;PMS7003;41397;49.972;18.944;2023-10-19T03:36:29;54;45;28
55549;PMS7003;41397;49.972;18.944;2023-10-19T03:39:33;60;51;30
55549;PMS7003;41397;49.972;18.944;2023-10-19T03:42:42;54;44;29
55549;PMS7003;41397;49.972;18.944;2023-10-19T03:45:47;54;44;29
55549;PMS7003;41397;49.972;18.944;2023-10-19T03:48:53;55;43;29
55549;PMS7003;41397;49.972;18.944;2023-10-19T03:51:59;52;41;27
55549;PMS7003;41397;49.972;18.944;2023-10-19T03:55:15;50;41;25
55549;PMS7003;41397;49.972;18.944;2023-10-19T03:58:19;53;44;29
55549;PMS7003;41397;49.972;18.944;2023-10-19T04:01:27;53;44;28
55549;PMS7003;41397;49.972;18.944;2023-10-19T04:04:31;52;43;30
55549;PMS7003;41397;49.972;18.944;2023-10-19T04:07:34;56;45;30
55549;PMS7003;41397;49.972;18.944;2023-10-19T04:10:36;53;44;29
55549;PMS7003;41397;49.972;18.944;2023-10-19T04:13:45;60;50;30
55549;PMS7003;41397;49.972;18.944;2023-10-19T04:16:46;53;43;28
55549;PMS7003;41397;49.972;18.944;2023-10-19T04:19:49;64;51;30
55549;PMS7003;41397;49.972;18.944;2023-10-19T04:22:56;66;47;29
55549;PMS7003;41397;49.972;18.944;2023-10-19T04:26:04;55;44;26
55549;PMS7003;41397;49.972;18.944;2023-10-19T04:29:11;60;48;30
55549;PMS7003;41397;49.972;18.944;2023-10-19T04:32:22;50;41;26
55549;PMS7003;41397;49.972;18.944;2023-10-19T04:35:27;56;48;31
55549;PMS7003;41397;49.972;18.944;2023-10-19T04:38:34;52;43;26
55549;PMS7003;41397;49.972;18.944;2023-10-19T04:41:37;61;51;29
55549;PMS7003;41397;49.972;18.944;2023-10-19T04:44:40;60;52;32
55549;PMS7003;41397;49.972;18.944;2023-10-19T04:49:32;53;44;26
55549;PMS7003;41397;49.972;18.944;2023-10-19T04:52:33;59;51;32
55549;PMS7003;41397;49.972;18.944;2023-10-19T04:55:34;35;31;15
55549;PMS7003;41397;49.972;18.944;2023-10-19T04:58:40;58;49;31
55549;PMS7003;41397;49.972;18.944;2023-10-19T05:01:41;58;48;32
55549;PMS7003;41397;49.972;18.944;2023-10-19T05:04:43;57;46;29
55549;PMS7003;41397;49.972;18.944;2023-10-19T05:07:46;54;44;30
55549;PMS7003;41397;49.972;18.944;2023-10-19T05:10:48;64;58;30
55549;PMS7003;41397;49.972;18.944;2023-10-19T05:13:50;59;47;29
55549;PMS7003;41397;49.972;18.944;2023-10-19T05:16:52;48;40;26
55549;PMS7003;41397;49.972;18.944;2023-10-19T05:19:53;58;48;28
55549;PMS7003;41397;49.972;18.944;2023-10-19T05:22:56;57;44;28
55549;PMS7003;41397;49.972;18.944;2023-10-19T05:26:03;60;49;29
55549;PMS7003;41397;49.972;18.944;2023-10-19T05:29:07;59;46;26
55549;PMS7003;41397;49.972;18.944;2023-10-19T05:32:08;51;42;28
55549;PMS7003;41397;49.972;18.944;2023-10-19T05:35:10;44;37;25
55549;PMS7003;41397;49.972;18.944;2023-10-19T05:38:23;52;43;27
55549;PMS7003;41397;49.972;18.944;2023-10-19T05:41:24;50;40;26
55549;PMS7003;41397;49.972;18.944;2023-10-19T05:44:28;44;37;17
55549;PMS7003;41397;49.972;18.944;2023-10-19T05:47:31;55;45;29
55549;PMS7003;41397;49.972;18.944;2023-10-19T05:50:35;52;43;26
55549;PMS7003;41397;49.972;18.944;2023-10-19T05:53:37;51;40;26
55549;PMS7003;41397;49.972;18.944;2023-10-19T05:56:38;58;41;26
55549;PMS7003;41397;49.972;18.944;2023-10-19T05:59:40;56;42;27
55549;PMS7003;41397;49.972;18.944;2023-10-19T06:02:44;54;43;27
55549;PMS7003;41397;49.972;18.944;2023-10-19T06:05:47;51;40;27
55549;PMS7003;41397;49.972;18.944;2023-10-19T06:08:49;50;41;26
55549;PMS7003;41397;49.972;18.944;2023-10-19T06:11:54;49;39;23
55549;PMS7003;41397;49.972;18.944;2023-10-19T06:14:56;48;40;26
55549;PMS7003;41397;49.972;18.944;2023-10-19T06:17:57;44;38;27
55549;PMS7003;41397;49.972;18.944;2023-10-19T06:20:58;47;37;24
55549;PMS7003;41397;49.972;18.944;2023-10-19T06:24:00;53;42;27
55549;PMS7003;41397;49.972;18.944;2023-10-19T06:27:03;50;41;25
55549;PMS7003;41397;49.972;18.944;2023-10-19T06:30:05;47;37;26
55549;PMS7003;41397;49.972;18.944;2023-10-19T06:33:07;47;38;25
55549;PMS7003;41397;49.972;18.944;2023-10-19T06:36:09;45;37;25
55549;PMS7003;41397;49.972;18.944;2023-10-19T06:39:11;51;42;26
55549;PMS7003;41397;49.972;18.944;2023-10-19T06:42:14;49;41;25
55549;PMS7003;41397;49.972;18.944;2023-10-19T06:45:16;54;43;27
55549;PMS7003;41397;49.972;18.944;2023-10-19T06:48:19;44;37;24
55549;PMS7003;41397;49.972;18.944;2023-10-19T06:51:21;41;35;23
55549;PMS7003;41397;49.972;18.944;2023-10-19T06:54:30;44;36;24
55549;PMS7003;41397;49.972;18.944;2023-10-19T06:57:32;64;41;25
55549;PMS7003;41397;49.972;18.944;2023-10-19T07:00:34;43;35;23
55549;PMS7003;41397;49.972;18.944;2023-10-19T07:03:42;46;38;25
55549;PMS7003;41397;49.972;18.944;2023-10-19T07:06:43;48;40;24
55549;PMS7003;41397;49.972;18.944;2023-10-19T07:09:48;46;39;27
55549;PMS7003;41397;49.972;18.944;2023-10-19T07:12:53;46;38;24
55549;PMS7003;41397;49.972;18.944;2023-10-19T07:15:56;43;36;24
55549;PMS7003;41397;49.972;18.944;2023-10-19T07:18:57;43;37;23
55549;PMS7003;41397;49.972;18.944;2023-10-19T07:22:05;36;32;22
55549;PMS7003;41397;49.972;18.944;2023-10-19T07:25:10;46;39;25
55549;PMS7003;41397;49.972;18.944;2023-10-19T07:28:16;41;35;23
55549;PMS7003;41397;49.972;18.944;2023-10-19T07:31:18;44;37;25
55549;PMS7003;41397;49.972;18.944;2023-10-19T07:34:19;50;39;26
55549;PMS7003;41397;49.972;18.944;2023-10-19T07:37:31;51;41;25
55549;PMS7003;41397;49.972;18.944;2023-10-19T07:40:33;47;39;25
55549;PMS7003;41397;49.972;18.944;2023-10-19T07:43:35;47;40;24
55549;PMS7003;41397;49.972;18.944;2023-10-19T07:46:37;42;36;23
55549;PMS7003;41397;49.972;18.944;2023-10-19T07:49:39;43;36;23
55549;PMS7003;41397;49.972;18.944;2023-10-19T07:52:42;42;36;23
55549;PMS7003;41397;49.972;18.944;2023-10-19T07:55:49;45;38;25
55549;PMS7003;41397;49.972;18.944;2023-10-19T07:58:50;45;38;24
55549;PMS7003;41397;49.972;18.944;2023-10-19T08:01:52;44;36;23
55549;PMS7003;41397;49.972;18.944;2023-10-19T08:04:53;44;38;26
55549;PMS7003;41397;49.972;18.944;2023-10-19T08:07:55;46;39;26
55549;PMS7003;41397;49.972;18.944;2023-10-19T08:11:00;46;38;23
55549;PMS7003;41397;49.972;18.944;2023-10-19T08:14:02;45;37;26
55549;PMS7003;41397;49.972;18.944;2023-10-19T08:17:03;45;37;26
55549;PMS7003;41397;49.972;18.944;2023-10-19T08:20:08;47;39;25
55549;PMS7003;41397;49.972;18.944;2023-10-19T08:23:22;41;35;25
55549;PMS7003;41397;49.972;18.944;2023-10-19T08:26:28;46;38;27
55549;PMS7003;41397;49.972;18.944;2023-10-19T08:29:30;45;34;23
55549;PMS7003;41397;49.972;18.944;2023-10-19T08:32:32;40;34;22
55549;PMS7003;41397;49.972;18.944;2023-10-19T08:35:34;38;31;20
55549;PMS7003;41397;49.972;18.944;2023-10-19T08:38:36;32;29;20
55549;PMS7003;41397;49.972;18.944;2023-10-19T08:41:38;31;28;17
55549;PMS7003;41397;49.972;18.944;2023-10-19T08:44:42;32;28;20
55549;PMS7003;41397;49.972;18.944;2023-10-19T08:47:48;37;33;21
55549;PMS7003;41397;49.972;18.944;2023-10-19T08:50:57;35;31;19
55549;PMS7003;41397;49.972;18.944;2023-10-19T08:53:59;39;33;20
55549;PMS7003;41397;49.972;18.944;2023-10-19T08:57:02;37;28;20
55549;PMS7003;41397;49.972;18.944;2023-10-19T09:00:05;29;27;18
55549;PMS7003;41397;49.972;18.944;2023-10-19T09:03:08;29;27;19
55549;PMS7003;41397;49.972;18.944;2023-10-19T09:06:11;28;27;16
55549;PMS7003;41397;49.972;18.944;2023-10-19T09:09:15;31;28;20
55549;PMS7003;41397;49.972;18.944;2023-10-19T09:12:25;33;30;19
55549;PMS7003;41397;49.972;18.944;2023-10-19T09:15:27;31;29;20
55549;PMS7003;41397;49.972;18.944;2023-10-19T09:18:34;35;30;20
55549;PMS7003;41397;49.972;18.944;2023-10-19T09:21:36;38;32;19
55549;PMS7003;41397;49.972;18.944;2023-10-19T09:24:40;31;27;17
55549;PMS7003;41397;49.972;18.944;2023-10-19T09:27:43;38;33;22
55549;PMS7003;41397;49.972;18.944;2023-10-19T09:30:44;39;34;23
55549;PMS7003;41397;49.972;18.944;2023-10-19T09:33:48;35;31;21
55549;PMS7003;41397;49.972;18.944;2023-10-19T09:36:55;43;35;23
55549;PMS7003;41397;49.972;18.944;2023-10-19T09:39:58;42;35;20
55549;PMS7003;41397;49.972;18.944;2023-10-19T09:43:04;31;28;21
55549;PMS7003;41397;49.972;18.944;2023-10-19T09:46:09;32;30;18
55549;PMS7003;41397;49.972;18.944;2023-10-19T09:49:15;35;31;21
55549;PMS7003;41397;49.972;18.944;2023-10-19T09:52:18;34;30;22
55549;PMS7003;41397;49.972;18.944;2023-10-19T09:55:28;27;25;18
55549;PMS7003;41397;49.972;18.944;2023-10-19T09:58:40;40;34;23
55549;PMS7003;41397;49.972;18.944;2023-10-19T10:04:59;34;30;21
55549;PMS7003;41397;49.972;18.944;2023-10-19T10:08:44;38;32;20
55549;PMS7003;41397;49.972;18.944;2023-10-19T10:11:17;38;34;23
55549;PMS7003;41397;49.972;18.944;2023-10-19T10:14:21;40;35;24
55549;PMS7003;41397;49.972;18.944;2023-10-19T10:17:25;46;39;26
55549;PMS7003;41397;49.972;18.944;2023-10-19T10:20:29;46;36;26
55549;PMS7003;41397;49.972;18.944;2023-10-19T10:23:32;46;37;24
55549;PMS7003;41397;49.972;18.944;2023-10-19T10:26:57;47;38;25
55549;PMS7003;41397;49.972;18.944;2023-10-19T10:33:06;46;38;25
55549;PMS7003;41397;49.972;18.944;2023-10-19T10:36:14;35;31;20
55549;PMS7003;41397;49.972;18.944;2023-10-19T10:39:18;36;32;21
55549;PMS7003;41397;49.972;18.944;2023-10-19T10:42:24;24;23;17
55549;PMS7003;41397;49.972;18.944;2023-10-19T10:45:29;41;34;23
55549;PMS7003;41397;49.972;18.944;2023-10-19T10:48:32;34;30;20
55549;PMS7003;41397;49.972;18.944;2023-10-19T10:51:33;37;32;22
55549;PMS7003;41397;49.972;18.944;2023-10-19T10:54:35;36;32;23
55549;PMS7003;41397;49.972;18.944;2023-10-19T10:57:36;41;34;22
55549;PMS7003;41397;49.972;18.944;2023-10-19T11:00:42;42;35;23
55549;PMS7003;41397;49.972;18.944;2023-10-19T11:03:47;44;38;25
55549;PMS7003;41397;49.972;18.944;2023-10-19T11:06:49;45;38;26
55549;PMS7003;41397;49.972;18.944;2023-10-19T11:09:53;39;31;21
55549;PMS7003;41397;49.972;18.944;2023-10-19T11:16:06;39;34;21
55549;PMS7003;41397;49.972;18.944;2023-10-19T11:19:08;38;33;22
55549;PMS7003;41397;49.972;18.944;2023-10-19T11:22:10;41;34;21
55549;PMS7003;41397;49.972;18.944;2023-10-19T11:28:24;45;36;21
55549;PMS7003;41397;49.972;18.944;2023-10-19T11:31:33;39;34;21
55549;PMS7003;41397;49.972;18.944;2023-10-19T11:34:41;34;29;21
55549;PMS7003;41397;49.972;18.944;2023-10-19T11:40:56;51;40;24
55549;PMS7003;41397;49.972;18.944;2023-10-19T11:43:58;44;37;25
55549;PMS7003;41397;49.972;18.944;2023-10-19T11:47:00;46;37;25
55549;PMS7003;41397;49.972;18.944;2023-10-19T11:50:03;48;37;23
55549;PMS7003;41397;49.972;18.944;2023-10-19T11:53:05;43;37;23
55549;PMS7003;41397;49.972;18.944;2023-10-19T11:56:07;44;36;23
55549;PMS7003;41397;49.972;18.944;2023-10-19T11:59:10;42;34;22
55549;PMS7003;41397;49.972;18.944;2023-10-19T12:02:13;43;36;24
55549;PMS7003;41397;49.972;18.944;2023-10-19T12:05:19;47;36;23
55549;PMS7003;41397;49.972;18.944;2023-10-19T12:08:20;41;35;22
55549;PMS7003;41397;49.972;18.944;2023-10-19T12:11:23;39;34;22
55549;PMS7003;41397;49.972;18.944;2023-10-19T12:14:25;55;41;27
55549;PMS7003;41397;49.972;18.944;2023-10-19T12:17:26;48;37;25
55549;PMS7003;41397;49.972;18.944;2023-10-19T12:20:28;49;40;26
55549;PMS7003;41397;49.972;18.944;2023-10-19T12:23:36;47;38;24
55549;PMS7003;41397;49.972;18.944;2023-10-19T12:26:42;47;38;24
55549;PMS7003;41397;49.972;18.944;2023-10-19T12:29:43;47;38;25
55549;PMS7003;41397;49.972;18.944;2023-10-19T12:32:45;36;31;22
55549;PMS7003;41397;49.972;18.944;2023-10-19T12:35:50;42;36;22
55549;PMS7003;41397;49.972;18.944;2023-10-19T12:39:00;44;32;21
55549;PMS7003;41397;49.972;18.944;2023-10-19T12:42:08;39;33;22
55549;PMS7003;41397;49.972;18.944;2023-10-19T12:45:10;36;31;22
55549;PMS7003;41397;49.972;18.944;2023-10-19T12:48:12;41;35;23
55549;PMS7003;41397;49.972;18.944;2023-10-19T12:51:13;43;36;24
55549;PMS7003;41397;49.972;18.944;2023-10-19T12:54:16;45;35;24
55549;PMS7003;41397;49.972;18.944;2023-10-19T12:57:18;44;37;24
55549;PMS7003;41397;49.972;18.944;2023-10-19T13:00:21;46;37;25
55549;PMS7003;41397;49.972;18.944;2023-10-19T13:03:26;43;36;24
55549;PMS7003;41397;49.972;18.944;2023-10-19T13:06:33;46;38;23
55549;PMS7003;41397;49.972;18.944;2023-10-19T13:09:36;44;35;22
55549;PMS7003;41397;49.972;18.944;2023-10-19T13:12:37;33;29;21
55549;PMS7003;41397;49.972;18.944;2023-10-19T13:15:39;40;34;24
55549;PMS7003;41397;49.972;18.944;2023-10-19T13:18:42;46;38;25
55549;PMS7003;41397;49.972;18.944;2023-10-19T13:21:44;40;33;22
55549;PMS7003;41397;49.972;18.944;2023-10-19T13:24:46;38;33;21
55549;PMS7003;41397;49.972;18.944;2023-10-19T13:27:47;39;33;23
55549;PMS7003;41397;49.972;18.944;2023-10-19T13:30:50;40;34;20
55549;PMS7003;41397;49.972;18.944;2023-10-19T13:33:53;42;36;20
55549;PMS7003;41397;49.972;18.944;2023-10-19T13:36:55;37;32;22
55549;PMS7003;41397;49.972;18.944;2023-10-19T13:39:57;45;37;23
55549;PMS7003;41397;49.972;18.944;2023-10-19T13:43:00;42;35;23
55549;PMS7003;41397;49.972;18.944;2023-10-19T13:46:02;48;36;23
55549;PMS7003;41397;49.972;18.944;2023-10-19T13:49:05;43;35;23
55549;PMS7003;41397;49.972;18.944;2023-10-19T13:52:07;42;36;23
55549;PMS7003;41397;49.972;18.944;2023-10-19T13:55:11;45;37;24
55549;PMS7003;41397;49.972;18.944;2023-10-19T13:58:20;40;32;22
55549;PMS7003;41397;49.972;18.944;2023-10-19T14:01:23;45;37;24
55549;PMS7003;41397;49.972;18.944;2023-10-19T14:04:27;46;37;23
55549;PMS7003;41397;49.972;18.944;2023-10-19T14:07:29;41;34;23
55549;PMS7003;41397;49.972;18.944;2023-10-19T14:10:33;44;37;23
55549;PMS7003;41397;49.972;18.944;2023-10-19T14:13:35;45;38;24
55549;PMS7003;41397;49.972;18.944;2023-10-19T14:16:37;43;35;23
55549;PMS7003;41397;49.972;18.944;2023-10-19T14:19:40;44;37;23
55549;PMS7003;41397;49.972;18.944;2023-10-19T14:22:46;41;35;24
55549;PMS7003;41397;49.972;18.944;2023-10-19T14:25:54;44;36;23
55549;PMS7003;41397;49.972;18.944;2023-10-19T14:28:55;35;31;22
55549;PMS7003;41397;49.972;18.944;2023-10-19T14:31:57;40;34;22
55549;PMS7003;41397;49.972;18.944;2023-10-19T14:34:59;39;33;22
55549;PMS7003;41397;49.972;18.944;2023-10-19T14:38:02;45;37;25
55549;PMS7003;41397;49.972;18.944;2023-10-19T14:41:04;46;38;24
55549;PMS7003;41397;49.972;18.944;2023-10-19T14:44:05;39;34;25
55549;PMS7003;41397;49.972;18.944;2023-10-19T14:47:08;46;38;25
55549;PMS7003;41397;49.972;18.944;2023-10-19T14:50:10;47;38;25
55549;PMS7003;41397;49.972;18.944;2023-10-19T14:53:14;51;40;26
55549;PMS7003;41397;49.972;18.944;2023-10-19T14:56:15;44;36;24
55549;PMS7003;41397;49.972;18.944;2023-10-19T14:59:17;43;36;24
55549;PMS7003;41397;49.972;18.944;2023-10-19T15:02:19;43;34;22
55549;PMS7003;41397;49.972;18.944;2023-10-19T15:05:24;42;36;23
55549;PMS7003;41397;49.972;18.944;2023-10-19T15:08:27;44;37;25
55549;PMS7003;41397;49.972;18.944;2023-10-19T15:11:32;46;38;26
55549;PMS7003;41397;49.972;18.944;2023-10-19T15:14:34;45;38;26
55549;PMS7003;41397;49.972;18.944;2023-10-19T15:17:38;49;39;25
55549;PMS7003;41397;49.972;18.944;2023-10-19T15:20:40;48;40;24
55549;PMS7003;41397;49.972;18.944;2023-10-19T15:23:42;48;38;24
55549;PMS7003;41397;49.972;18.944;2023-10-19T15:26:43;41;34;22
55549;PMS7003;41397;49.972;18.944;2023-10-19T15:29:45;40;34;21
55549;PMS7003;41397;49.972;18.944;2023-10-19T15:32:47;41;33;21
55549;PMS7003;41397;49.972;18.944;2023-10-19T15:35:50;44;37;23
55549;PMS7003;41397;49.972;18.944;2023-10-19T15:38:52;44;37;25
55549;PMS7003;41397;49.972;18.944;2023-10-19T15:41:53;47;37;23
55549;PMS7003;41397;49.972;18.944;2023-10-19T15:44:55;45;37;24
55549;PMS7003;41397;49.972;18.944;2023-10-19T15:47:56;42;35;23
55549;PMS7003;41397;49.972;18.944;2023-10-19T15:51:01;42;35;23
55549;PMS7003;41397;49.972;18.944;2023-10-19T15:54:03;34;30;20
55549;PMS7003;41397;49.972;18.944;2023-10-19T15:57:06;45;37;25
55549;PMS7003;41397;49.972;18.944;2023-10-19T16:00:08;41;35;23
55549;PMS7003;41397;49.972;18.944;2023-10-19T16:03:14;44;35;24
55549;PMS7003;41397;49.972;18.944;2023-10-19T16:06:20;47;38;25
55549;PMS7003;41397;49.972;18.944;2023-10-19T16:09:22;50;40;25
55549;PMS7003;41397;49.972;18.944;2023-10-19T16:12:25;46;38;24
55549;PMS7003;41397;49.972;18.944;2023-10-19T16:15:27;7;3;0
55549;PMS7003;41397;49.972;18.944;2023-10-19T16:18:29;47;36;25
55549;PMS7003;41397;49.972;18.944;2023-10-19T16:21:31;51;43;25
55549;PMS7003;41397;49.972;18.944;2023-10-19T16:24:32;47;38;24
55549;PMS7003;41397;49.972;18.944;2023-10-19T16:27:34;47;40;25
55549;PMS7003;41397;49.972;18.944;2023-10-19T16:30:37;52;44;26
55549;PMS7003;41397;49.972;18.944;2023-10-19T16:33:38;53;47;29
55549;PMS7003;41397;49.972;18.944;2023-10-19T16:36:43;52;44;27
55549;PMS7003;41397;49.972;18.944;2023-10-19T16:39:45;52;44;27
55549;PMS7003;41397;49.972;18.944;2023-10-19T16:42:46;55;48;29
55549;PMS7003;41397;49.972;18.944;2023-10-19T16:45:48;53;47;29
55549;PMS7003;41397;49.972;18.944;2023-10-19T16:48:49;52;43;26
55549;PMS7003;41397;49.972;18.944;2023-10-19T16:51:51;46;39;24
55549;PMS7003;41397;49.972;18.944;2023-10-19T16:54:53;53;46;26
55549;PMS7003;41397;49.972;18.944;2023-10-19T16:57:54;52;41;26
55549;PMS7003;41397;49.972;18.944;2023-10-19T17:00:58;50;37;23
55549;PMS7003;41397;49.972;18.944;2023-10-19T17:04:00;52;40;25
55549;PMS7003;41397;49.972;18.944;2023-10-19T17:07:02;52;43;26
55549;PMS7003;41397;49.972;18.944;2023-10-19T17:10:04;46;38;25
55549;PMS7003;41397;49.972;18.944;2023-10-19T17:13:06;48;40;25
55549;PMS7003;41397;49.972;18.944;2023-10-19T17:16:08;48;39;24
55549;PMS7003;41397;49.972;18.944;2023-10-19T17:19:10;45;37;25
55549;PMS7003;41397;49.972;18.944;2023-10-19T17:22:11;40;33;23
55549;PMS7003;41397;49.972;18.944;2023-10-19T17:25:13;45;37;23
55549;PMS7003;41397;49.972;18.944;2023-10-19T17:28:15;50;41;26
55549;PMS7003;41397;49.972;18.944;2023-10-19T17:31:17;54;46;28
55549;PMS7003;41397;49.972;18.944;2023-10-19T17:34:20;47;40;25
55549;PMS7003;41397;49.972;18.944;2023-10-19T17:37:22;47;39;24
55549;PMS7003;41397;49.972;18.944;2023-10-19T17:40:23;46;39;24
55549;PMS7003;41397;49.972;18.944;2023-10-19T17:43:25;51;42;25
55549;PMS7003;41397;49.972;18.944;2023-10-19T17:46:26;53;40;25
55549;PMS7003;41397;49.972;18.944;2023-10-19T17:49:28;43;36;23
55549;PMS7003;41397;49.972;18.944;2023-10-19T17:52:29;47;39;25
55549;PMS7003;41397;49.972;18.944;2023-10-19T17:55:34;42;35;23
55549;PMS7003;41397;49.972;18.944;2023-10-19T17:58:37;44;36;24
55549;PMS7003;41397;49.972;18.944;2023-10-19T18:01:42;45;37;25
55549;PMS7003;41397;49.972;18.944;2023-10-19T18:04:46;48;40;27
55549;PMS7003;41397;49.972;18.944;2023-10-19T18:07:53;55;42;25
55549;PMS7003;41397;49.972;18.944;2023-10-19T18:10:59;48;40;26
55549;PMS7003;41397;49.972;18.944;2023-10-19T18:14:01;50;40;25
55549;PMS7003;41397;49.972;18.944;2023-10-19T18:17:05;47;39;26
55549;PMS7003;41397;49.972;18.944;2023-10-19T18:20:10;51;42;26
55549;PMS7003;41397;49.972;18.944;2023-10-19T18:23:11;41;34;23
55549;PMS7003;41397;49.972;18.944;2023-10-19T18:26:13;49;40;23
55549;PMS7003;41397;49.972;18.944;2023-10-19T18:29:21;49;40;26
55549;PMS7003;41397;49.972;18.944;2023-10-19T18:32:22;46;36;24
55549;PMS7003;41397;49.972;18.944;2023-10-19T18:35:24;44;36;24
55549;PMS7003;41397;49.972;18.944;2023-10-19T18:38:26;49;41;26
55549;PMS7003;41397;49.972;18.944;2023-10-19T18:41:27;50;41;26
55549;PMS7003;41397;49.972;18.944;2023-10-19T18:44:31;49;39;24
55549;PMS7003;41397;49.972;18.944;2023-10-19T18:47:33;51;44;28
55549;PMS7003;41397;49.972;18.944;2023-10-19T18:50:35;55;48;29
55549;PMS7003;41397;49.972;18.944;2023-10-19T18:53:37;55;48;28
55549;PMS7003;41397;49.972;18.944;2023-10-19T18:56:39;58;49;27
55549;PMS7003;41397;49.972;18.944;2023-10-19T18:59:41;51;43;26
55549;PMS7003;41397;49.972;18.944;2023-10-19T19:02:42;54;49;30
55549;PMS7003;41397;49.972;18.944;2023-10-19T19:05:44;52;45;26
55549;PMS7003;41397;49.972;18.944;2023-10-19T19:08:46;52;46;28
55549;PMS7003;41397;49.972;18.944;2023-10-19T19:11:48;56;45;27
55549;PMS7003;41397;49.972;18.944;2023-10-19T19:14:49;55;49;30
55549;PMS7003;41397;49.972;18.944;2023-10-19T19:17:52;61;55;33
55549;PMS7003;41397;49.972;18.944;2023-10-19T19:20:54;60;50;30
55549;PMS7003;41397;49.972;18.944;2023-10-19T19:23:55;57;53;30
55549;PMS7003;41397;49.972;18.944;2023-10-19T19:26:57;59;56;33
55549;PMS7003;41397;49.972;18.944;2023-10-19T19:29:59;58;51;31
55549;PMS7003;41397;49.972;18.944;2023-10-19T19:33:00;53;44;26
55549;PMS7003;41397;49.972;18.944;2023-10-19T19:36:02;54;49;32
55549;PMS7003;41397;49.972;18.944;2023-10-19T19:39:04;55;48;31
55549;PMS7003;41397;49.972;18.944;2023-10-19T19:42:14;56;48;31